Latest Coastal Weather Observations for Larapuna (Eddystone Point)

IDT60701

Issued at 8:22 am EST Monday 25 July 2016 (issued every 10 minutes, with the page automatically refreshed every 10 minutes)

About coastal observations | Map of coastal stations | Coastal observations for TAS | Marine services | Other Formats
Station Details ID: 092045 Name: LARAPUNA (EDDYSTONE POINT) Lat: -40.99 Lon: 148.35 Height: 19.7 m
Data from the previous 72 hours. | See also: Recent months at Larapuna (Eddystone Point)
Date/Time
EST
Temp
°C
Wind Pressure Rain since
9am
mm
Weather Cloud Vis
km
Sea
Height
m
Swell
Dir  Spd
kts
Gust
kts
hPa Trend Height
m
Period
s
Dir
25/08:00am 10.0 NNW 17 24 1001.2 - 1.2 - - - - - - -
25/07:30am 9.7 NNW 13 19 1001.3 - 1.0 - - - - - - -
25/07:00am 9.4 NW 14 20 1001.2 - 1.0 - - - - - - -
25/06:30am 8.3 WNW 10 12 1001.1 - 1.0 - - - - - - -
25/06:00am 9.4 NW 12 17 1001.0 - 0.4 - - - - - - -
25/05:30am 9.0 NW 14 18 1001.2 - 0.4 - - - - - - -
25/05:00am 9.3 NNW 14 19 1001.1 - 0.4 - - - - - - -
25/04:30am 7.6 NW 8 11 1001.3 - 0.4 - - - - - - -
25/04:00am 7.1 WNW 7 10 1001.5 - 0.4 - - - - - - -
25/03:30am 7.6 WNW 9 13 1001.5 - 0.4 - - - - - - -
25/03:00am 7.6 WNW 9 11 1001.7 - 0.4 - - - - - - -
25/02:30am 8.2 NNW 6 8 1001.9 - 0.4 - - - - - - -
25/02:00am 8.5 NNW 9 11 1002.1 - 0.4 - - - - - - -
25/01:30am 6.4 NW 5 6 1002.2 - 0.2 - - - - - - -
25/01:00am 7.0 NW 6 9 1002.4 - 0.2 - - - - - - -
25/12:30am 7.8 NW 9 12 1002.5 - 0.2 - - - - - - -
25/12:00am 7.6 NNW 8 10 1002.9 - 0.2 Recent precip. - - - - - -
 
Date/Time
EST
Temp
°C
Wind Pressure Rain since
9am
mm
Weather Cloud Vis
km
Sea
Height
m
Swell
Dir  Spd
kts
Gust
kts
hPa Trend Height
m
Period
s
Dir
24/11:30pm 7.4 NW 7 9 1003.4 - 0.2 - - - - - - -
24/11:00pm 6.5 WNW 7 9 1003.4 - 0.0 - - - - - - -
24/10:30pm 6.5 WNW 7 9 1003.5 - 0.0 - - - - - - -
24/10:00pm 6.2 W 10 12 1003.7 - 0.0 - - - - - - -
24/09:30pm 6.4 WNW 9 11 1003.9 - 0.0 - - - - - - -
24/09:00pm 6.7 NW 10 12 1004.2 - 0.0 - - - - - - -
24/08:30pm 6.8 NW 11 14 1004.4 - 0.0 - - - - - - -
24/08:00pm 6.8 WNW 10 13 1004.5 - 0.0 - - - - - - -
24/07:30pm 7.2 NW 11 17 1004.8 - 0.0 - - - - - - -
24/07:00pm 7.4 NW 13 17 1004.9 - 0.0 - - - - - - -
24/06:30pm 7.7 NW 10 14 1004.9 - 0.0 - - - - - - -
24/06:00pm 8.4 NW 15 19 1004.6 - 0.0 - - - - - - -
24/05:30pm 8.5 NNW 12 16 1004.5 - 0.0 - - - - - - -
24/05:00pm 8.6 NW 9 13 1004.5 - 0.0 - - - - - - -
24/04:30pm 9.2 WNW 7 12 1004.6 - 0.0 - - - - - - -
24/04:00pm 9.8 NW 10 14 1004.6 - 0.0 - - - - - - -
24/03:30pm 9.3 WNW 8 10 1004.7 - 0.0 - - - - - - -
24/03:00pm 9.6 NW 9 13 1004.8 - 0.0 - - - - - - -
24/02:30pm 10.0 NW 11 15 1004.8 - 0.0 - - - - - - -
24/02:00pm 10.9 WNW 12 17 1004.9 - 0.0 - - - - - - -
24/01:30pm 10.3 NW 16 20 1005.2 - 0.0 - - - - - - -
24/01:00pm 11.9 NW 12 19 1005.6 - 0.0 - - - - - - -
24/12:30pm 11.1 NW 13 18 1005.9 - 0.0 - - - - - - -
24/12:00pm 10.3 NW 13 19 1006.4 - 0.0 - - - - - - -
24/11:30am 10.4 WNW 12 16 1007.0 - 0.0 - - - - - - -
24/11:00am 10.0 NW 8 11 1007.3 - 0.0 - - - - - - -
24/10:30am 9.1 WNW 8 11 1007.2 - 0.0 - - - - - - -
24/10:00am 8.1 W 4 7 1007.3 - 0.0 - - - - - - -
24/09:30am 6.8 W 5 7 1007.3 - 0.0 - - - - - - -
24/09:00am 6.0 WSW 6 8 1007.3 - 0.0 - - - - - - -
24/08:30am 4.9 WNW 8 10 1007.3 - 0.0 - - - - - - -
24/08:00am 4.6 W 9 11 1007.2 - 0.0 - - - - - - -
24/07:30am 3.9 WNW 13 17 1006.9 - 0.0 - - - - - - -
24/07:00am 3.4 WNW 16 21 1006.4 - 0.0 - - - - - - -
24/06:30am 2.9 WNW 16 18 1006.6 - 0.0 - - - - - - -
24/06:00am 4.0 WNW 16 19 1006.5 - 0.0 - - - - - - -
24/05:30am 4.3 WNW 17 19 1006.5 - 0.0 - - - - - - -
24/05:00am 3.7 WNW 14 17 1006.5 - 0.0 - - - - - - -
24/04:30am 3.2 WNW 11 13 1006.5 - 0.0 - - - - - - -
24/04:00am 3.6 WNW 13 17 1006.7 - 0.0 - - - - - - -
24/03:30am 3.3 W 11 13 1006.5 - 0.0 - - - - - - -
24/03:00am 3.6 W 12 15 1006.6 - 0.0 - - - - - - -
24/02:30am 3.3 W 12 15 1006.9 - 0.0 - - - - - - -
24/02:00am 2.5 W 10 14 1006.8 - 0.0 - - - - - - -
24/01:30am 3.6 W 15 20 1006.6 - 0.0 - - - - - - -
24/01:00am 3.8 W 16 22 1006.4 - 0.0 - - - - - - -
24/12:30am 3.0 W 11 19 1006.3 - 0.0 - - - - - - -
24/12:00am 3.3 W 16 21 1005.9 - 0.0 - - - - - - -
 
Date/Time
EST
Temp
°C
Wind Pressure Rain since
9am
mm
Weather Cloud Vis
km
Sea
Height
m
Swell
Dir  Spd
kts
Gust
kts
hPa Trend Height
m
Period
s
Dir
23/11:30pm 3.6 W 16 22 1005.8 - 0.0 - - - - - - -
23/11:00pm 3.7 W 16 20 1005.7 - 0.0 - - - - - - -
23/10:30pm 4.0 W 17 23 1005.0 - 0.0 - - - - - - -
23/10:00pm 3.9 W 17 23 1004.5 - 0.0 - - - - - - -
23/09:30pm 3.8 W 18 25 1003.7 - 0.0 - - - - - - -
23/09:00pm 3.9 W 17 23 1003.1 - 0.0 - - - - - - -
23/08:30pm 4.2 W 16 22 1002.5 - 0.0 - - - - - - -
23/08:00pm 4.3 W 15 22 1002.0 - 0.0 - - - - - - -
23/07:30pm 4.4 W 14 19 1001.3 - 0.0 - - - - - - -
23/07:00pm 4.7 W 13 17 1000.3 - 0.0 - - - - - - -
23/06:30pm 4.7 W 15 18 999.0 - 0.0 - - - - - - -
23/06:00pm 5.2 W 14 19 998.1 - 0.0 - - - - - - -
23/05:30pm 5.7 W 13 18 997.3 - 0.0 - - - - - - -
23/05:00pm 6.6 WSW 15 20 996.5 - 0.0 - - - - - - -
23/04:30pm 7.7 W 17 25 995.5 - 0.0 - - - - - - -
23/04:00pm 7.2 WNW 17 27 995.1 - 0.0 - - - - - - -
23/03:36pm 7.9 W 21 31 994.6 - 0.0 - - - - - - -
23/03:30pm 8.3 W 23 31 994.4 - 0.0 - - - - - - -
23/03:03pm 8.8 WNW 18 28 993.9 - 0.0 - - - - - - -
23/03:00pm 9.1 WNW 17 25 993.9 - 0.0 - - - - - - -
23/02:30pm 8.9 W 22 32 993.6 - 0.0 - - - - - - -
23/02:02pm 9.1 W 20 31 993.3 - 0.0 - - - - - - -
23/02:00pm 9.2 W 20 28 993.2 - 0.0 - - - - - - -
23/01:31pm 8.6 W 20 30 993.3 - 0.0 - - - - - - -
23/01:30pm 8.8 W 21 30 993.2 - 0.0 - - - - - - -
23/01:17pm 8.9 W 18 28 993.1 - 0.0 - - - - - - -
23/01:00pm 8.8 W 21 28 992.7 - 0.0 - - - - - - -
23/12:36pm 8.7 W 21 33 992.1 - 0.0 - - - - - - -
23/12:30pm 8.6 W 23 31 992.1 - 0.0 - - - - - - -
23/12:13pm 8.5 W 22 32 991.8 - 0.0 - - - - - - -
23/12:00pm 8.4 W 22 31 991.5 - 0.0 - - - - - - -
23/11:33am 8.2 W 21 33 990.9 - 0.0 - - - - - - -
23/11:30am 8.3 W 21 29 991.0 - 0.0 - - - - - - -
23/11:00am 8.0 W 20 30 990.4 - 0.0 - - - - - - -
23/10:39am 8.1 W 19 31 990.1 - 0.0 - - - - - - -
23/10:30am 8.1 W 19 28 990.0 - 0.0 - - - - - - -
23/10:08am 7.8 W 22 32 989.6 - 0.0 - - - - - - -
23/10:00am 7.7 W 19 26 989.5 - 0.0 - - - - - - -
23/09:45am 7.6 W 21 31 989.1 - 0.0 - - - - - - -
23/09:30am 7.4 W 23 30 988.7 - 0.0 - - - - - - -
23/09:14am 7.4 W 19 29 988.4 - 0.0 - - - - - - -
23/09:00am 7.5 W 17 25 988.6 - 3.4 - - - - - - -
23/08:30am 7.1 WNW 16 29 988.0 - 3.4 - - - - - - -
23/08:29am 7.0 W 15 29 988.0 - 3.4 - - - - - - -
23/08:00am 7.0 W 16 24 987.7 - 3.4 - - - - - - -
23/07:58am 7.0 W 16 26 987.7 - 3.4 - - - - - - -
23/07:30am 7.0 W 15 23 986.8 - 3.4 - - - - - - -
23/07:00am 7.3 WNW 13 19 986.4 - 3.4 - - - - - - -
23/06:30am 7.4 WNW 15 22 986.0 - 3.4 - - - - - - -
23/06:00am 7.4 W 15 28 985.6 - 3.4 - - - - - - -
23/05:56am 7.4 W 15 28 985.6 - 3.4 - - - - - - -
23/05:30am 7.5 W 14 22 985.4 - 3.4 - - - - - - -
23/05:00am 7.3 W 12 16 985.2 - 3.4 - - - - - - -
23/04:30am 7.7 W 12 17 984.9 - 3.4 - - - - - - -
23/04:00am 7.9 WNW 13 20 984.9 - 3.4 - - - - - - -
23/03:30am 7.6 WNW 10 15 985.2 - 3.4 - - - - - - -
23/03:00am 7.6 NW 10 11 985.5 - 3.4 - - - - - - -
23/02:30am 7.2 NW 7 9 986.2 - 3.4 - - - - - - -
23/02:00am 7.1 S 4 7 986.7 - 3.4 - - - - - - -
23/01:30am 7.2 WNW 4 8 986.6 - 3.4 - - - - - - -
23/01:00am 7.3 NW 4 6 986.9 - 3.4 - - - - - - -
23/12:30am 7.5 SW 2 6 987.1 - 3.4 - - - - - - -
23/12:00am 8.1 WNW 12 17 986.8 - 3.4 - - - - - - -
 
Date/Time
EST
Temp
°C
Wind Pressure Rain since
9am
mm
Weather Cloud Vis
km
Sea
Height
m
Swell
Dir  Spd
kts
Gust
kts
hPa Trend Height
m
Period
s
Dir
22/11:30pm 8.2 WNW 14 19 987.2 - 3.4 - - - - - - -
22/11:00pm 8.3 WNW 13 18 987.6 - 3.4 - - - - - - -
22/10:30pm 8.5 WNW 14 18 987.7 - 3.4 - - - - - - -
22/10:00pm 8.9 WNW 18 23 987.6 - 3.4 - - - - - - -
22/09:30pm 9.3 WNW 17 23 987.7 - 3.4 - - - - - - -
22/09:00pm 9.7 WNW 20 29 987.5 - 3.4 - - - - - - -
22/08:30pm 9.9 WNW 21 31 987.7 - 3.4 - - - - - - -
22/08:20pm 9.8 WNW 22 32 987.5 - 3.4 - - - - - - -
22/08:00pm 10.0 WNW 23 31 987.6 - 3.4 - - - - - - -
22/07:32pm 10.1 WNW 21 31 987.3 - 3.4 - - - - - - -
22/07:30pm 9.9 WNW 20 28 987.4 - 3.4 - - - - - - -
22/07:00pm 10.4 WNW 22 34 987.1 - 3.4 - - - - - - -
22/06:43pm 10.4 WNW 19 29 987.2 - 3.4 - - - - - - -
22/06:30pm 10.6 WNW 21 29 986.8 - 3.4 - - - - - - -
22/06:12pm 10.8 WNW 22 32 986.5 - 3.4 - - - - - - -
22/06:00pm 10.9 WNW 23 31 986.5 - 3.4 - - - - - - -
22/05:30pm 11.3 WNW 20 31 986.2 - 3.4 - - - - - - -
22/05:00pm 11.6 WNW 23 35 985.5 - 3.4 - - - - - - -
22/04:30pm 12.0 WNW 23 34 985.1 - 3.4 - - - - - - -
22/04:00pm 12.2 WNW 26 38 985.1 - 3.4 - - - - - - -
22/03:30pm 12.0 NW 21 32 984.8 - 3.4 - - - - - - -
22/03:19pm 11.8 NW 20 31 985.0 - 3.4 - - - - - - -
22/03:00pm 10.7 NW 17 21 985.2 - 3.4 Recent precip. - - - - - -
22/02:30pm 9.9 WNW 17 24 985.7 - 3.4 - - - - - - -
22/02:13pm 10.0 W 31 56 986.5 - 2.4 - - - - - - -
22/02:12pm 10.2 WNW 31 56 986.5 - 2.2 - - - - - - -
22/02:05pm 11.8 NW 32 54 986.2 - 0.6 - - - - - - -
22/02:00pm 13.9 NNW 33 44 984.9 - 0.6 - - - - - - -
22/01:30pm 14.3 NNW 27 37 985.1 - 0.6 - - - - - - -
22/01:16pm 14.5 NNW 23 33 985.4 - 0.6 - - - - - - -
22/01:00pm 14.3 NW 25 32 985.9 - 0.6 - - - - - - -
22/12:30pm 13.7 NW 25 35 987.1 - 0.2 - - - - - - -
22/12:00pm 14.9 NW 24 34 987.6 - 0.2 - - - - - - -
22/11:30am 14.6 NW 21 31 988.4 - 0.2 - - - - - - -
22/11:00am 14.4 WNW 24 37 989.3 - 0.2 - - - - - - -
22/10:30am 13.9 NW 24 40 989.2 - 0.2 - - - - - - -
22/10:00am 14.1 NW 29 43 989.4 - 0.2 - - - - - - -
22/09:52am 14.1 NW 28 43 989.5 - 0.2 - - - - - - -
22/09:30am 13.6 NNW 23 33 990.0 - 0.0 - - - - - - -
22/09:25am 13.4 NNW 23 33 990.1 - 0.0 - - - - - - -
22/09:00am 13.1 NNW 24 32 990.5 - 6.2 Recent precip. - - - - - -
22/08:30am 12.7 NNW 26 36 990.8 - 6.2 - - - - - - -

Other Formats:

Comma delimited format used in spreadsheet applications
http://www.bom.gov.au/fwo/IDT60701/IDT60701.94983.axf

JavaScript Object Notation format (JSON) in row-major order
http://www.bom.gov.au/fwo/IDT60701/IDT60701.94983.json